Time;durP1;ratioP1;P1;durP2;ratioP2;P2;SDS_P1;SDS_P2;PMS_P1;PMS_P2;Temp;Humidity;BMP_temperature;BMP_pressure;BME280_temperature;BME280_humidity;BME280_pressure;Samples;Min_cycle;Max_cycle;Signal;HPM_P1;HPM_P2
2022/07/05 00:01:27;;;;;;;19.00;9.85;;;;;;;21.00;100.00;99875.27;1552389;92;21094;-78
2022/07/05 00:03:53;;;;;;;17.05;9.55;;;;;;;20.98;100.00;99876.06;1552200;92;21035;-79
2022/07/05 00:06:20;;;;;;;19.12;9.95;;;;;;;20.97;100.00;99875.75;1590655;89;21115;-79
2022/07/05 00:08:47;;;;;;;18.20;10.08;;;;;;;20.94;100.00;99872.11;1612862;89;21107;-80
2022/07/05 00:11:14;;;;;;;19.60;9.58;;;;;;;20.95;100.00;99867.47;1612827;89;21078;-78
2022/07/05 00:13:43;;;;;;;19.12;9.70;;;;;;;20.95;100.00;99870.22;1600459;89;21102;-80
2022/07/05 00:16:10;;;;;;;19.80;9.88;;;;;;;20.94;100.00;99868.53;1599746;90;21058;-80
2022/07/05 00:18:37;;;;;;;18.12;9.90;;;;;;;20.93;100.00;99871.83;1631587;88;21152;-79
2022/07/05 00:21:04;;;;;;;17.98;10.15;;;;;;;20.92;100.00;99864.66;1630560;87;21045;-78
2022/07/05 00:23:31;;;;;;;20.05;10.72;;;;;;;20.92;100.00;99859.16;1630279;88;21021;-77
2022/07/05 00:25:58;;;;;;;19.40;10.05;;;;;;;20.89;100.00;99855.52;1640449;87;21538;-78
2022/07/05 00:28:25;;;;;;;21.27;10.93;;;;;;;20.87;100.00;99863.17;1640861;87;21058;-77
2022/07/05 00:30:52;;;;;;;18.70;10.60;;;;;;;20.84;100.00;99860.90;1640890;87;21499;-78
2022/07/05 00:33:18;;;;;;;19.42;9.98;;;;;;;20.81;100.00;99851.80;1640710;87;21001;-78
2022/07/05 00:35:45;;;;;;;22.73;11.12;;;;;;;20.78;100.00;99851.72;1640769;87;21021;-77
2022/07/05 00:38:12;;;;;;;19.42;10.93;;;;;;;20.76;100.00;99851.69;1640631;87;20998;-78
2022/07/05 00:40:40;;;;;;;19.25;10.82;;;;;;;20.72;100.00;99851.34;1640510;87;21073;-78
2022/07/05 00:43:06;;;;;;;18.30;10.15;;;;;;;20.69;100.00;99853.73;1640910;87;21021;-78
2022/07/05 00:45:33;;;;;;;17.95;9.93;;;;;;;20.65;100.00;99854.21;1640582;87;21053;-77
2022/07/05 00:48:00;;;;;;;17.15;9.30;;;;;;;20.62;100.00;99855.23;1640682;87;21032;-77
2022/07/05 00:50:27;;;;;;;18.45;10.18;;;;;;;20.60;100.00;99851.32;1640495;87;21005;-77
2022/07/05 00:52:55;;;;;;;18.67;9.63;;;;;;;20.57;100.00;99843.55;1640687;87;21032;-77
2022/07/05 00:55:22;;;;;;;17.10;9.78;;;;;;;20.55;100.00;99849.00;1620088;86;21050;-77
2022/07/05 00:57:50;;;;;;;16.97;9.40;;;;;;;20.53;100.00;99850.61;1638018;87;21057;-77
2022/07/05 01:00:17;;;;;;;16.70;9.23;;;;;;;20.51;100.00;99841.79;1638328;87;21483;-76
2022/07/05 01:02:44;;;;;;;17.30;9.30;;;;;;;20.49;100.00;99846.69;1598100;89;21003;-76
2022/07/05 01:05:11;;;;;;;15.80;8.88;;;;;;;20.46;100.00;99847.99;1597034;90;21026;-78
2022/07/05 01:07:38;;;;;;;14.78;9.50;;;;;;;20.44;100.00;99840.53;1605989;88;21053;-76
2022/07/05 01:10:06;;;;;;;13.93;8.73;;;;;;;20.43;100.00;99840.77;1597536;88;21038;-78
2022/07/05 01:12:33;;;;;;;16.30;9.90;;;;;;;20.40;100.00;99841.28;1597815;88;21062;-76
2022/07/05 01:15:00;;;;;;;17.85;10.13;;;;;;;20.39;100.00;99836.30;1597032;90;21086;-78
2022/07/05 01:17:29;;;;;;;16.87;10.08;;;;;;;20.38;100.00;99836.54;1597808;88;21556;-77
2022/07/05 01:19:55;;;;;;;16.93;9.85;;;;;;;20.36;100.00;99835.44;1596961;90;21558;-76
2022/07/05 01:22:25;;;;;;;18.40;10.85;;;;;;;20.36;100.00;99832.69;1606466;88;21041;-79
2022/07/05 01:24:52;;;;;;;17.77;10.78;;;;;;;20.35;100.00;99828.26;1601250;89;21079;-79
2022/07/05 01:27:19;;;;;;;16.77;10.50;;;;;;;20.34;100.00;99833.98;1606432;88;21045;-77
2022/07/05 01:29:47;;;;;;;17.80;10.35;;;;;;;20.34;100.00;99833.44;1597193;90;21529;-79
2022/07/05 01:32:13;;;;;;;18.25;10.85;;;;;;;20.35;100.00;99828.26;1597199;89;21046;-78
2022/07/05 01:34:40;;;;;;;16.82;10.25;;;;;;;20.37;100.00;99828.02;1597277;89;21099;-79
2022/07/05 01:37:08;;;;;;;17.70;10.78;;;;;;;20.36;100.00;99828.57;1606250;88;21152;-77
2022/07/05 01:39:35;;;;;;;22.42;10.72;;;;;;;20.36;100.00;99823.59;1597175;90;21046;-78
2022/07/05 01:42:03;;;;;;;17.82;10.75;;;;;;;20.38;100.00;99829.67;1597041;88;21126;-78
2022/07/05 01:44:30;;;;;;;17.27;10.32;;;;;;;20.39;100.00;99829.98;1597053;90;21086;-78
2022/07/05 01:47:05;;;;;;;16.48;9.80;;;;;;;20.40;100.00;99830.30;1596918;89;21133;-79
2022/07/05 01:49:41;;;;;;;15.53;9.48;;;;;;;20.41;100.00;99836.89;1609962;86;21125;-80
2022/07/05 01:52:11;;;;;;;16.70;9.45;;;;;;;20.41;100.00;99828.66;1559290;90;21047;-77
2022/07/05 01:54:39;;;;;;;14.65;8.88;;;;;;;20.44;100.00;99832.30;1612513;87;21108;-78
2022/07/05 01:57:06;;;;;;;17.67;8.93;;;;;;;20.45;100.00;99831.75;1622970;88;21548;-79
2022/07/05 01:59:34;;;;;;;13.62;8.50;;;;;;;20.48;100.00;99838.14;1634854;86;21120;-78
2022/07/05 02:02:02;;;;;;;12.88;8.55;;;;;;;20.51;100.00;99834.09;1634541;88;21057;-78
2022/07/05 02:04:29;;;;;;;15.98;8.50;;;;;;;20.53;100.00;99838.80;1617764;89;21067;-77
2022/07/05 02:06:57;;;;;;;16.70;8.98;;;;;;;20.56;100.00;99844.65;1634174;88;21014;-80
2022/07/05 02:09:25;;;;;;;14.68;8.88;;;;;;;20.58;100.00;99837.55;1603218;88;21059;-78
2022/07/05 02:11:52;;;;;;;17.82;9.85;;;;;;;20.60;100.00;99845.00;1620377;88;21118;-78
2022/07/05 02:14:19;;;;;;;17.65;9.18;;;;;;;20.59;100.00;99840.05;1621311;88;21114;-80
2022/07/05 02:16:46;;;;;;;14.13;8.38;;;;;;;20.60;100.00;99845.00;1623019;88;21022;-78
2022/07/05 02:19:13;;;;;;;18.05;9.83;;;;;;;20.59;100.00;99846.92;1625509;88;21014;-78
2022/07/05 02:21:41;;;;;;;15.30;9.40;;;;;;;20.59;100.00;99842.80;1618023;89;21015;-79
2022/07/05 02:24:10;;;;;;;16.73;9.83;;;;;;;20.59;100.00;99846.06;1634292;88;21088;-79
2022/07/05 02:26:39;;;;;;;18.35;9.93;;;;;;;20.56;100.00;99841.91;1620489;88;21059;-79
2022/07/05 02:29:06;;;;;;;18.02;10.38;;;;;;;20.51;100.00;99845.91;1602990;88;21074;-78
2022/07/05 02:31:34;;;;;;;16.25;10.10;;;;;;;20.46;100.00;99849.36;1640422;87;21036;-78
2022/07/05 02:34:02;;;;;;;18.57;10.80;;;;;;;20.41;100.00;99846.50;1627329;88;20987;-78
2022/07/05 02:36:29;;;;;;;17.27;10.35;;;;;;;20.34;100.00;99843.05;1643822;87;21065;-80
2022/07/05 02:38:56;;;;;;;22.10;10.70;;;;;;;20.28;100.00;99842.11;1627355;88;21102;-79
2022/07/05 02:41:23;;;;;;;19.12;10.65;;;;;;;20.24;100.00;99835.98;1643633;87;21029;-78
2022/07/05 02:43:52;;;;;;;24.30;11.60;;;;;;;20.24;100.00;99833.23;1627436;88;21027;-79
2022/07/05 02:46:20;;;;;;;19.37;10.75;;;;;;;20.25;100.00;99832.97;1643824;87;21057;-79
2022/07/05 02:48:47;;;;;;;21.48;10.80;;;;;;;20.28;100.00;99828.92;1627367;88;21003;-79
2022/07/05 02:51:16;;;;;;;21.30;10.90;;;;;;;20.31;100.00;99824.34;1644038;87;21033;-78
2022/07/05 02:53:44;;;;;;;25.37;11.48;;;;;;;20.33;100.00;99824.92;1609824;88;21070;-79
2022/07/05 02:56:12;;;;;;;19.87;10.30;;;;;;;20.39;100.00;99830.81;1657319;86;21053;-78
2022/07/05 02:58:39;;;;;;;20.12;10.63;;;;;;;20.46;100.00;99832.89;1626058;87;21035;-79
2022/07/05 03:01:08;;;;;;;21.12;10.50;;;;;;;20.52;100.00;99835.20;1646987;86;21033;-79
2022/07/05 03:03:36;;;;;;;22.60;10.13;;;;;;;20.60;100.00;99834.02;1675177;86;21136;-79
2022/07/05 03:06:05;;;;;;;21.85;10.95;;;;;;;20.66;100.00;99835.29;1675042;86;21034;-78
2022/07/05 03:08:32;;;;;;;16.95;9.18;;;;;;;20.73;100.00;99829.63;1675070;86;21037;-79
2022/07/05 03:10:59;;;;;;;20.43;9.63;;;;;;;20.81;100.00;99836.68;1674880;86;21062;-78
2022/07/05 03:13:26;;;;;;;20.55;9.60;;;;;;;20.89;100.00;99836.28;1675183;85;20993;-79
2022/07/05 03:15:53;;;;;;;19.20;9.20;;;;;;;21.01;100.00;99836.25;1674998;86;21050;-77
2022/07/05 03:18:22;;;;;;;19.62;9.20;;;;;;;21.16;100.00;99840.67;1675191;86;21057;-77
2022/07/05 03:20:50;;;;;;;20.17;9.18;;;;;;;21.30;100.00;99847.23;1674956;86;21571;-79
2022/07/05 03:23:17;;;;;;;26.40;10.13;;;;;;;21.43;100.00;99844.19;1675021;86;21034;-78
2022/07/05 03:25:47;;;;;;;24.60;9.43;;;;;;;21.56;100.00;99846.64;1673659;86;21120;-77
2022/07/05 03:28:14;;;;;;;22.22;9.58;;;;;;;21.70;100.00;99848.53;1675391;86;21010;-79
2022/07/05 03:30:42;;;;;;;19.57;8.88;;;;;;;21.82;100.00;99855.34;1675390;85;21025;-78
2022/07/05 03:33:09;;;;;;;15.58;8.35;;;;;;;21.92;100.00;99856.03;1675254;86;21073;-78
2022/07/05 03:35:37;;;;;;;15.13;8.20;;;;;;;22.02;100.00;99861.71;1675355;86;20997;-79
2022/07/05 03:38:04;;;;;;;13.48;8.40;;;;;;;22.14;100.00;99865.77;1675238;86;21053;-78
2022/07/05 03:40:31;;;;;;;14.93;7.87;;;;;;;22.27;100.00;99871.48;1675517;85;21033;-78
2022/07/05 03:42:58;;;;;;;12.55;7.87;;;;;;;22.39;100.00;99865.33;1675106;85;21086;-79
2022/07/05 03:45:25;;;;;;;15.78;8.33;;;;;;;22.51;100.00;99876.25;1675563;86;21061;-79
2022/07/05 03:47:52;;;;;;;15.05;7.92;;;;;;;22.63;100.00;99874.74;1665994;86;21546;-80
2022/07/05 03:50:20;;;;;;;15.18;8.10;;;;;;;22.77;100.00;99873.83;1675368;86;21121;-78
2022/07/05 03:52:47;;;;;;;15.85;7.80;;;;;;;22.88;100.00;99875.64;1675656;86;20990;-78
2022/07/05 03:55:14;;;;;;;19.32;9.75;;;;;;;22.98;100.00;99878.50;1681803;84;21058;-79
2022/07/05 03:57:42;;;;;;;17.55;9.15;;;;;;;23.11;100.00;99880.91;1707812;84;21034;-78
2022/07/05 04:00:11;;;;;;;18.37;9.43;;;;;;;23.21;100.00;99884.31;1709131;84;21038;-78
2022/07/05 04:02:43;;;;;;;17.25;9.40;;;;;;;23.30;100.00;99887.45;1708773;84;21528;-79
2022/07/05 04:05:11;;;;;;;17.52;9.45;;;;;;;23.44;100.00;99899.77;1665507;86;21540;-78
2022/07/05 04:07:53;;;;;;;19.05;9.50;;;;;;;23.60;100.00;99900.77;1665046;86;21097;-78
2022/07/05 04:10:22;;;;;;;20.00;9.23;;;;;;;23.72;100.00;99901.95;1665214;85;21066;-78
2022/07/05 04:12:49;;;;;;;19.00;9.78;;;;;;;23.84;100.00;99904.59;1665614;86;21026;-79
2022/07/05 04:15:17;;;;;;;18.98;10.35;;;;;;;23.96;100.00;99908.57;1665364;86;21030;-79
2022/07/05 04:17:50;;;;;;;20.82;10.95;;;;;;;24.10;100.00;99913.08;1665151;85;21049;-79
2022/07/05 04:20:17;;;;;;;24.95;12.35;;;;;;;24.21;100.00;99910.70;1665148;85;20999;-79
2022/07/05 04:22:44;;;;;;;22.32;13.43;;;;;;;24.34;100.00;99910.79;1653627;86;21007;-79
2022/07/05 04:25:18;;;;;;;24.37;14.28;;;;;;;24.51;100.00;99920.31;1653631;86;21034;-77
2022/07/05 04:27:49;;;;;;;26.35;14.60;;;;;;;24.71;100.00;99932.06;1664826;85;21036;-79
2022/07/05 04:30:17;;;;;;;24.32;14.58;;;;;;;24.94;100.00;99930.25;1665127;85;21010;-78
2022/07/05 04:32:45;;;;;;;29.75;15.40;;;;;;;25.19;100.00;99936.99;1664728;85;21045;-79
2022/07/05 04:35:12;;;;;;;26.37;15.05;;;;;;;25.41;100.00;99938.75;1665190;85;21002;-78
2022/07/05 04:37:40;;;;;;;26.57;14.95;;;;;;;25.61;100.00;99948.52;1664841;85;21377;-79
2022/07/05 04:40:10;;;;;;;23.07;13.80;;;;;;;25.83;100.00;99952.42;1664914;86;21034;-79
2022/07/05 04:42:37;;;;;;;21.62;12.70;;;;;;;26.02;100.00;99958.30;1664869;85;21069;-79
2022/07/05 04:45:05;;;;;;;22.20;11.75;;;;;;;26.21;100.00;99959.16;1665019;85;21049;-78
2022/07/05 04:47:34;;;;;;;23.10;10.72;;;;;;;26.39;100.00;99964.13;1653305;86;21078;-78
2022/07/05 04:50:02;;;;;;;18.25;9.85;;;;;;;26.59;100.00;99966.03;1665131;85;21181;-79
2022/07/05 04:52:30;;;;;;;16.45;9.03;;;;;;;26.74;100.00;99980.48;1664907;85;21046;-79
2022/07/05 04:54:57;;;;;;;17.25;9.18;;;;;;;26.82;100.00;99981.28;1664940;86;21082;-79
2022/07/05 04:57:23;;;;;;;24.95;9.65;;;;;;;26.92;100.00;99978.23;1664934;85;21038;-78
2022/07/05 04:59:50;;;;;;;17.75;8.40;;;;;;;27.08;100.00;99982.05;1664643;86;21065;-79
2022/07/05 05:02:17;;;;;;;16.02;8.75;;;;;;;27.26;100.00;99986.70;1664893;86;21014;-80
2022/07/05 05:04:44;;;;;;;17.32;8.45;;;;;;;27.43;100.00;99990.00;1664926;86;21022;-79
2022/07/05 05:07:12;;;;;;;14.85;7.92;;;;;;;27.62;100.00;99989.34;1664925;86;21042;-78
2022/07/05 05:09:40;;;;;;;14.90;8.13;;;;;;;27.82;100.00;99997.56;1665047;86;21105;-79
2022/07/05 05:12:08;;;;;;;14.28;7.72;;;;;;;28.02;100.00;99993.03;1665381;86;20999;-77
2022/07/05 05:14:37;;;;;;;14.33;7.95;;;;;;;28.21;100.00;99989.00;1660989;86;21057;-77
2022/07/05 05:17:04;;;;;;;19.05;9.25;;;;;;;28.48;100.00;99990.45;1664807;86;21018;-77
2022/07/05 05:19:32;;;;;;;19.25;9.18;;;;;;;28.69;100.00;99990.55;1664365;86;21046;-76
2022/07/05 05:21:59;;;;;;;24.40;15.53;;;;;;;28.88;100.00;99991.19;1664825;86;21058;-77
2022/07/05 05:24:26;;;;;;;18.67;11.12;;;;;;;29.06;100.00;100000.19;1664971;85;21026;-76
2022/07/05 05:26:54;;;;;;;18.85;9.70;;;;;;;29.16;100.00;100000.65;1664674;85;21074;-76
2022/07/05 05:29:21;;;;;;;17.23;8.83;;;;;;;29.26;100.00;99997.75;1664608;85;21078;-76
2022/07/05 05:31:48;;;;;;;16.48;8.85;;;;;;;29.43;100.00;99992.25;1664759;86;21034;-76
2022/07/05 05:34:15;;;;;;;20.80;12.43;;;;;;;29.62;100.00;99987.53;1664707;86;21523;-76
2022/07/05 05:36:42;;;;;;;22.00;15.00;;;;;;;29.82;100.00;99996.22;1664814;86;20983;-76
2022/07/05 05:39:09;;;;;;;21.62;14.13;;;;;;;30.02;100.00;100005.41;1664455;85;21046;-76
2022/07/05 05:41:36;;;;;;;14.45;8.90;;;;;;;30.14;100.00;100001.59;1664571;86;21054;-76
2022/07/05 05:44:04;;;;;;;15.00;8.38;;;;;;;30.28;100.00;99998.30;1664819;86;21061;-77
2022/07/05 05:46:31;;;;;;;13.30;8.35;;;;;;;30.41;100.00;100007.87;1664523;86;21034;-76
2022/07/05 05:48:58;;;;;;;13.30;8.83;;;;;;;30.55;100.00;100007.09;1662233;86;21118;-77
2022/07/05 05:51:26;;;;;;;15.13;8.83;;;;;;;30.73;100.00;100007.59;1650093;87;21046;-77
2022/07/05 05:53:53;;;;;;;15.78;9.23;;;;;;;30.84;100.00;100007.66;1683201;85;21061;-76
2022/07/05 05:56:20;;;;;;;18.60;10.05;;;;;;;30.97;100.00;100017.23;1683405;85;21108;-77
2022/07/05 05:58:47;;;;;;;17.92;9.35;;;;;;;31.04;100.00;100016.81;1682879;85;21579;-75
2022/07/05 06:01:14;;;;;;;22.65;9.88;;;;;;;31.03;100.00;100017.97;1649701;87;21015;-75
2022/07/05 06:03:41;;;;;;;18.20;8.98;;;;;;;31.07;100.00;100014.80;1683038;85;21054;-77
2022/07/05 06:06:08;;;;;;;24.37;9.85;;;;;;;31.15;100.00;100004.91;1649086;87;21027;-75
2022/07/05 06:08:36;;;;;;;18.07;9.30;;;;;;;31.31;100.00;100002.05;1681562;84;21026;-74
2022/07/05 06:11:05;;;;;;;14.45;8.78;;;;;;;31.45;100.00;100003.98;1663648;85;21089;-74
2022/07/05 06:13:32;;;;;;;54.30;48.68;;;;;;;31.53;100.00;99997.70;1646973;85;21532;-73
2022/07/05 06:15:59;;;;;;;94.97;84.67;;;;;;;31.73;100.00;100000.06;1633617;87;21051;-75
2022/07/05 06:18:26;;;;;;;21.95;11.88;;;;;;;31.89;100.00;100006.68;1666110;85;21446;-74
2022/07/05 06:20:52;;;;;;;22.17;10.28;;;;;;;31.95;100.00;100008.23;1674793;85;21061;-72
2022/07/05 06:23:19;;;;;;;18.05;9.53;;;;;;;31.94;100.00;100003.77;1646932;87;21060;-75
2022/07/05 06:25:46;;;;;;;14.55;8.85;;;;;;;32.02;100.00;100000.81;1700286;84;21048;-74
2022/07/05 06:28:13;;;;;;;15.18;9.20;;;;;;;32.11;100.00;100001.73;1697308;84;20917;-75
2022/07/05 06:30:40;;;;;;;381.95;340.15;;;;;;;32.23;100.00;100003.95;1633480;87;21228;-74
2022/07/05 06:33:07;;;;;;;64.80;58.55;;;;;;;32.40;100.00;100003.27;1634013;87;21002;-74
2022/07/05 06:35:34;;;;;;;30.25;20.30;;;;;;;32.63;100.00;99999.32;1671020;85;21010;-74
2022/07/05 06:38:04;;;;;;;19.42;12.10;;;;;;;32.79;100.00;99999.73;1677474;85;21082;-77
2022/07/05 06:40:42;;;;;;;20.17;8.98;;;;;;;33.03;100.00;99999.38;1633273;87;21091;-79
2022/07/05 06:43:11;;;;;;;13.00;7.97;;;;;;;33.24;100.00;99996.03;1578770;90;21066;-74
2022/07/05 06:45:39;;;;;;;20.70;14.98;;;;;;;33.34;100.00;99998.52;1575330;91;21074;-73
2022/07/05 06:48:10;;;;;;;20.35;11.48;;;;;;;33.33;100.00;99989.88;1560265;91;21094;-74
2022/07/05 06:50:40;;;;;;;17.57;10.28;;;;;;;33.37;100.00;99989.47;1564103;91;21521;-73
2022/07/05 06:53:07;;;;;;;28.87;10.40;;;;;;;33.37;100.00;99995.66;1494515;96;21112;-76
2022/07/05 06:55:35;;;;;;;26.70;11.70;;;;;;;33.46;100.00;99990.30;1487686;96;21127;-75
2022/07/05 06:58:07;;;;;;;19.12;10.15;;;;;;;33.56;100.00;99987.78;1504275;95;21143;-74
2022/07/05 07:00:34;;;;;;;24.15;11.75;;;;;;;33.69;100.00;99983.80;1511989;95;21171;-73
2022/07/05 07:03:02;;;;;;;18.07;9.40;;;;;;;33.81;100.00;99983.39;1502792;95;21119;-72
2022/07/05 07:05:29;;;;;;;19.45;9.45;;;;;;;33.81;89.67;99985.37;1517141;95;21102;-70
2022/07/05 07:10:42;;;;;;;26.07;10.80;;;;;;;33.48;91.45;99982.97;1510678;95;21115;-72
2022/07/05 07:13:09;;;;;;;17.60;8.50;;;;;;;33.67;95.59;99976.52;1512364;95;21581;-74
2022/07/05 07:15:40;;;;;;;24.30;8.88;;;;;;;33.90;98.12;99977.78;1477612;96;21340;-75
2022/07/05 07:18:07;;;;;;;15.28;9.10;;;;;;;34.09;92.91;99975.22;1463397;98;21082;-75
2022/07/05 07:20:34;;;;;;;17.35;9.05;;;;;;;34.20;82.84;99976.58;1463643;98;21649;-75
2022/07/05 07:23:02;;;;;;;15.03;8.05;;;;;;;34.20;81.39;99979.38;1464991;97;21133;-77
2022/07/05 07:25:30;;;;;;;13.13;7.28;;;;;;;34.20;79.37;99992.82;1501871;95;21568;-74
2022/07/05 07:27:57;;;;;;;15.05;7.85;;;;;;;34.18;79.49;99981.11;1494632;94;21066;-74
2022/07/05 07:30:26;;;;;;;15.28;7.37;;;;;;;34.34;83.21;99989.02;1495456;95;21572;-76
2022/07/05 07:32:54;;;;;;;12.73;7.78;;;;;;;34.57;80.98;99988.23;1494697;95;21062;-74
2022/07/05 07:35:21;;;;;;;16.65;6.75;;;;;;;34.84;82.30;99984.80;1494786;95;21158;-72
2022/07/05 07:37:48;;;;;;;12.88;6.83;;;;;;;35.03;73.66;99993.64;1495829;95;21078;-72
2022/07/05 07:40:15;;;;;;;9.80;6.35;;;;;;;34.97;69.69;99987.39;1519050;93;21563;-75
2022/07/05 07:42:42;;;;;;;9.75;6.78;;;;;;;34.88;71.06;99983.77;1509918;92;21034;-74
2022/07/05 07:45:10;;;;;;;12.18;6.12;;;;;;;34.97;73.82;99994.42;1542107;93;21090;-76
2022/07/05 07:47:38;;;;;;;10.03;5.83;;;;;;;35.19;70.43;99991.09;1583929;90;21080;-76
2022/07/05 07:50:06;;;;;;;19.62;6.67;;;;;;;35.28;67.64;99990.49;1624336;86;21163;-74
2022/07/05 07:52:36;;;;;;;10.80;6.17;;;;;;;35.21;70.08;99988.80;1576599;89;21655;-76
2022/07/05 07:55:05;;;;;;;10.20;6.35;;;;;;;35.37;73.85;99990.45;1585528;90;21102;-76
2022/07/05 07:57:32;;;;;;;9.43;6.28;;;;;;;35.64;74.60;99984.89;1603915;89;21092;-73
2022/07/05 07:59:59;;;;;;;17.27;7.78;;;;;;;35.97;70.25;99981.38;1659106;85;21545;-73
2022/07/05 08:02:26;;;;;;;10.25;6.20;;;;;;;36.25;68.03;99983.05;1657603;87;21304;-75
2022/07/05 08:04:54;;;;;;;21.07;8.10;;;;;;;36.45;61.43;99984.77;1657714;85;21082;-79
2022/07/05 08:07:21;;;;;;;14.87;6.55;;;;;;;36.43;59.80;99982.89;1631960;86;21029;-78
2022/07/05 08:09:48;;;;;;;16.00;6.10;;;;;;;36.59;59.28;99980.23;1629696;87;21030;-75
2022/07/05 08:12:16;;;;;;;11.68;5.78;;;;;;;36.74;61.48;99973.13;1622223;88;21030;-75
2022/07/05 08:14:43;;;;;;;9.23;5.92;;;;;;;36.83;59.73;99974.68;1612529;89;21492;-79
2022/07/05 08:17:10;;;;;;;17.35;7.33;;;;;;;36.76;54.58;99977.25;1631074;88;21086;-77
2022/07/05 08:22:23;;;;;;;9.88;5.97;;;;;;;36.94;54.43;99968.00;1636785;86;21106;-75
2022/07/05 08:24:50;;;;;;;10.72;6.08;;;;;;;36.72;51.82;99957.17;1684643;83;21017;-78
2022/07/05 08:27:18;;;;;;;14.95;9.45;;;;;;;36.49;52.30;99968.81;1681541;84;21014;-77
2022/07/05 08:29:45;;;;;;;13.28;8.33;;;;;;;36.47;57.90;99967.75;1666778;84;21007;-79
2022/07/05 08:32:13;;;;;;;14.50;8.08;;;;;;;36.71;59.20;99970.44;1665458;86;21596;-79
2022/07/05 08:34:39;;;;;;;18.50;6.35;;;;;;;36.98;59.38;99968.93;1665260;85;21026;-79
2022/07/05 08:37:07;;;;;;;6.60;5.90;;;;;;;37.22;57.36;99965.90;1677665;84;21057;-75
2022/07/05 08:39:35;;;;;;;8.58;5.60;;;;;;;37.28;49.67;99965.09;1677945;84;21094;-78
2022/07/05 08:42:02;;;;;;;9.28;5.95;;;;;;;37.02;52.01;99960.00;1673816;84;21078;-79
2022/07/05 08:44:30;;;;;;;8.25;5.17;;;;;;;36.91;53.43;99963.06;1674446;84;21087;-81
2022/07/05 08:46:58;;;;;;;19.12;6.15;;;;;;;36.91;49.68;99964.47;1652206;86;21351;-79
2022/07/05 08:49:26;;;;;;;11.68;5.40;;;;;;;36.89;47.51;99964.59;1673946;86;21583;-77
2022/07/05 08:51:55;;;;;;;36.25;7.35;;;;;;;36.96;48.72;99962.83;1673599;86;21160;-79
2022/07/05 08:54:25;;;;;;;11.15;5.65;;;;;;;37.19;47.47;99963.22;1673758;86;21037;-75
2022/07/05 08:56:52;;;;;;;11.75;5.70;;;;;;;37.39;49.24;99964.84;1678144;85;21169;-76
2022/07/05 08:59:19;;;;;;;12.23;5.60;;;;;;;37.66;46.89;99957.65;1661472;86;21061;-76
2022/07/05 09:01:47;;;;;;;12.43;5.30;;;;;;;37.84;45.90;99947.49;1654150;86;21070;-76
2022/07/05 09:04:14;;;;;;;8.43;5.30;;;;;;;37.76;46.34;99952.11;1655175;87;21050;-76
2022/07/05 09:06:41;;;;;;;10.23;5.40;;;;;;;37.78;45.62;99953.38;1657495;87;21093;-79
2022/07/05 09:09:08;;;;;;;10.72;5.85;;;;;;;38.01;47.61;99959.90;1657663;86;21054;-77
2022/07/05 09:11:39;;;;;;;10.68;5.83;;;;;;;38.22;43.86;99956.09;1661667;85;21042;-79
2022/07/05 09:14:07;;;;;;;9.25;5.78;;;;;;;38.30;44.68;99952.27;1696613;84;21078;-78
2022/07/05 09:16:34;;;;;;;10.80;5.72;;;;;;;38.35;43.73;99952.00;1693384;85;21033;-78
2022/07/05 09:19:06;;;;;;;16.05;5.72;;;;;;;38.46;42.82;99948.90;1669915;85;21049;-78
2022/07/05 09:21:34;;;;;;;;;;;;;;;38.55;42.95;99948.73;1662456;86;20977;-78
2022/07/05 09:24:09;;;;;;;17.07;9.28;;;;;;;38.32;42.54;99945.66;1675715;85;20451;-77
2022/07/05 09:26:48;;;;;;;11.80;8.25;;;;;;;38.16;46.33;99947.03;1643216;86;21059;-76
2022/07/05 09:29:19;;;;;;;40.03;8.23;;;;;;;38.14;46.52;99945.16;1643183;87;21036;-80
2022/07/05 09:31:49;;;;;;;12.13;6.17;;;;;;;38.02;42.40;99943.20;1598360;90;21099;-79
2022/07/05 09:34:19;;;;;;;9.95;5.90;;;;;;;37.65;42.06;99943.33;1599921;89;21120;-81
2022/07/05 09:37:01;;;;;;;10.85;5.80;;;;;;;36.90;41.24;99950.73;1600526;90;21074;-80
2022/07/05 09:39:37;;;;;;;7.35;5.22;;;;;;;35.93;43.05;99941.05;1600667;90;21709;-78
2022/07/05 09:42:23;;;;;;;7.17;5.80;;;;;;;35.36;48.01;99945.22;1590396;90;21012;-78
2022/07/05 09:44:55;;;;;;;10.80;7.00;;;;;;;35.54;48.69;99945.95;1583745;90;21174;-79
2022/07/05 09:47:24;;;;;;;10.48;5.72;;;;;;;35.93;48.54;99945.26;1586416;90;21144;-77
2022/07/05 09:49:54;;;;;;;8.48;5.53;;;;;;;36.27;43.56;99946.13;1587185;90;21128;-81
2022/07/05 09:52:35;;;;;;;8.53;5.20;;;;;;;36.42;45.45;99939.81;1586042;90;21025;-80
2022/07/05 09:55:06;;;;;;;8.88;5.12;;;;;;;36.76;44.05;99939.23;1586753;90;21096;-78
2022/07/05 09:57:35;;;;;;;9.60;5.40;;;;;;;37.12;44.33;99933.95;1586537;89;21093;-81
2022/07/05 10:00:06;;;;;;;9.90;5.85;;;;;;;37.56;44.77;99928.52;1581247;91;21133;-81
2022/07/05 10:02:47;;;;;;;10.58;6.03;;;;;;;38.06;46.11;99926.38;1576161;90;21107;-77
2022/07/05 10:05:24;;;;;;;12.53;5.50;;;;;;;38.48;42.06;99923.09;1576532;90;21158;-77
2022/07/05 10:07:57;;;;;;;10.10;6.03;;;;;;;38.59;39.71;99922.83;1576512;90;21117;-77
2022/07/05 10:10:26;;;;;;;8.05;5.50;;;;;;;38.52;38.45;99925.44;1533110;93;21118;-77
2022/07/05 10:13:07;;;;;;;7.75;5.62;;;;;;;38.35;37.69;99923.20;1534958;92;21111;-80
2022/07/05 10:15:35;;;;;;;8.68;5.42;;;;;;;38.06;37.82;99928.59;1535214;94;21608;-75
2022/07/05 10:18:10;;;;;;;8.60;5.50;;;;;;;38.03;39.11;99922.25;1533097;93;21717;-77
2022/07/05 10:20:44;;;;;;;10.48;5.87;;;;;;;38.09;39.11;99920.83;1488493;96;21124;-80
2022/07/05 10:23:16;;;;;;;6.85;5.60;;;;;;;37.92;39.06;99913.48;1488936;96;21095;-80
2022/07/05 10:25:49;;;;;;;11.03;6.20;;;;;;;37.56;41.18;99915.23;1458945;98;21098;-79
2022/07/05 10:28:17;;;;;;;9.45;5.60;;;;;;;37.21;43.85;99915.77;1468568;96;21116;-78
2022/07/05 10:30:46;;;;;;;16.30;5.55;;;;;;;37.13;42.79;99917.27;1469627;97;21086;-80
2022/07/05 10:33:14;;;;;;;19.48;5.70;;;;;;;37.24;45.41;99905.79;1468539;97;21731;-79
2022/07/05 10:35:45;;;;;;;14.68;9.63;;;;;;;37.60;45.42;99910.52;1529061;90;21652;-78
2022/07/05 10:38:12;;;;;;;10.35;5.80;;;;;;;37.91;43.54;99907.63;1563453;92;21039;-74
2022/07/05 10:40:41;;;;;;;12.60;6.00;;;;;;;37.79;41.16;99908.48;1561611;92;21095;-76
2022/07/05 10:43:09;;;;;;;11.50;5.47;;;;;;;37.05;40.62;99915.63;1562518;92;21131;-76
2022/07/05 10:45:39;;;;;;;12.85;6.03;;;;;;;36.17;41.66;99919.79;1565506;91;21094;-76
2022/07/05 10:48:27;;;;;;;9.80;5.30;;;;;;;35.60;44.06;99920.67;1566066;92;21074;-74
2022/07/05 10:51:14;;;;;;;10.45;6.17;;;;;;;35.51;44.74;99915.70;1565711;92;21997;-79
2022/07/05 10:53:57;;;;;;;10.50;5.60;;;;;;;35.60;46.57;99909.42;1565715;92;21159;-76
2022/07/05 10:56:24;;;;;;;9.63;5.70;;;;;;;35.63;45.94;99909.34;1566841;92;21050;-76
2022/07/05 10:58:54;;;;;;;10.90;5.65;;;;;;;35.88;51.45;99909.71;1565709;90;21067;-76
2022/07/05 11:01:28;;;;;;;6.92;5.30;;;;;;;36.33;47.73;99912.95;1559742;90;21564;-77
2022/07/05 11:04:07;;;;;;;10.30;5.60;;;;;;;36.80;45.56;99914.00;1565272;92;21151;-76
2022/07/05 11:06:42;;;;;;;10.98;5.55;;;;;;;37.27;45.04;99905.06;1568459;91;21053;-77
2022/07/05 11:09:16;;;;;;;18.77;6.67;;;;;;;37.67;41.66;99899.26;1577796;91;21620;-78
2022/07/05 11:12:04;;;;;;;8.68;5.45;;;;;;;37.96;40.75;99897.47;1567403;90;21106;-78
2022/07/05 11:14:34;;;;;;;9.75;5.22;;;;;;;38.22;38.72;99898.22;1641005;87;21034;-77
2022/07/05 11:17:22;;;;;;;12.50;5.83;;;;;;;38.47;38.64;99898.27;1671397;83;21044;-77
2022/07/05 11:20:14;;;;;;;33.85;7.72;;;;;;;38.60;37.66;99895.39;1713378;83;21536;-76
2022/07/05 11:23:08;;;;;;;12.35;5.60;;;;;;;38.64;36.89;99897.14;1636519;87;21250;-74
2022/07/05 11:25:50;;;;;;;9.60;5.40;;;;;;;38.85;34.94;99893.19;1538222;93;21093;-77
2022/07/05 11:28:22;;;;;;;13.48;6.05;;;;;;;39.05;35.33;99894.13;1538362;93;21068;-78
2022/07/05 11:31:01;;;;;;;8.30;6.15;;;;;;;39.36;34.54;99886.74;1538777;93;21118;-78
2022/07/05 11:33:44;;;;;;;17.52;6.90;;;;;;;39.55;34.83;99898.11;1490874;96;21151;-75